CHH706 VHHH-ZJHK
Flight info
| Callsign | CHH706 |
|---|---|
| Flight time | 1h 0m |
| Altitude | 32000 |
| Route | PECAN V10 SIKOU/K0887S0980 A202 ISBIG DCT DOMGO DOMGO6XA |
| Aircraft | B738/M-SDE2E3FGHIRWXY/LB1 |
Departure
| Time | 2026-04-22 00:48 |
|---|---|
| Airport | Hong Kong International Airport (VHHH) |
Arrival
| Time | 2026-04-22 01:48 |
|---|---|
| Airport | Haikou Meilan International Airport (ZJHK) |
| Time | Latitude | Longitude | Altitude | Speed | Heading |
|---|---|---|---|---|---|
| 2026-04-21 23:48 | 22.31658 | 113.93064 | 35 ft | 0 kts | 340° |
| 2026-04-22 00:29 | 22.31643 | 113.93069 | 35 ft | 4 kts | 339° |
| 2026-04-22 00:29 | 22.31621 | 113.93077 | 36 ft | 2 kts | 345° |
| 2026-04-22 00:29 | 22.31600 | 113.93087 | 34 ft | 4 kts | 311° |
| 2026-04-22 00:30 | 22.31594 | 113.93110 | 34 ft | 4 kts | 256° |
| 2026-04-22 00:30 | 22.31597 | 113.93122 | 35 ft | 1 kts | 251° |
| 2026-04-22 00:33 | 22.31596 | 113.93121 | 35 ft | 1 kts | 251° |
| 2026-04-22 00:33 | 22.31592 | 113.93107 | 34 ft | 3 kts | 251° |
| 2026-04-22 00:33 | 22.31581 | 113.93073 | 35 ft | 6 kts | 251° |
| 2026-04-22 00:33 | 22.31565 | 113.93023 | 35 ft | 8 kts | 251° |
| 2026-04-22 00:34 | 22.31544 | 113.92959 | 36 ft | 11 kts | 251° |
| 2026-04-22 00:34 | 22.31516 | 113.92872 | 36 ft | 14 kts | 251° |
| 2026-04-22 00:34 | 22.31489 | 113.92785 | 36 ft | 0 kts | 256° |
| 2026-04-22 00:34 | 22.31489 | 113.92783 | 36 ft | 1 kts | 263° |
| 2026-04-22 00:35 | 22.31495 | 113.92758 | 36 ft | 6 kts | 295° |
| 2026-04-22 00:35 | 22.31520 | 113.92702 | 36 ft | 10 kts | 295° |
| 2026-04-22 00:35 | 22.31552 | 113.92630 | 36 ft | 11 kts | 295° |
| 2026-04-22 00:35 | 22.31588 | 113.92550 | 34 ft | 12 kts | 295° |
| 2026-04-22 00:36 | 22.31628 | 113.92459 | 36 ft | 15 kts | 295° |
| 2026-04-22 00:36 | 22.31649 | 113.92372 | 36 ft | 10 kts | 256° |
| 2026-04-22 00:36 | 22.31624 | 113.92298 | 34 ft | 12 kts | 250° |
| 2026-04-22 00:36 | 22.31595 | 113.92206 | 36 ft | 14 kts | 251° |
| 2026-04-22 00:37 | 22.31559 | 113.92100 | 36 ft | 16 kts | 250° |
| 2026-04-22 00:37 | 22.31523 | 113.91987 | 34 ft | 16 kts | 251° |
| 2026-04-22 00:37 | 22.31486 | 113.91896 | 36 ft | 8 kts | 223° |
| 2026-04-22 00:37 | 22.31440 | 113.91889 | 36 ft | 7 kts | 161° |
| 2026-04-22 00:38 | 22.31394 | 113.91906 | 36 ft | 8 kts | 161° |
| 2026-04-22 00:38 | 22.31336 | 113.91927 | 36 ft | 10 kts | 161° |
| 2026-04-22 00:38 | 22.31260 | 113.91957 | 36 ft | 13 kts | 160° |
| 2026-04-22 00:38 | 22.31165 | 113.91993 | 36 ft | 16 kts | 160° |
| 2026-04-22 00:39 | 22.31054 | 113.92035 | 36 ft | 18 kts | 161° |
| 2026-04-22 00:39 | 22.30935 | 113.92080 | 36 ft | 18 kts | 161° |
| 2026-04-22 00:39 | 22.30857 | 113.92109 | 36 ft | 7 kts | 161° |
| 2026-04-22 00:39 | 22.30820 | 113.92123 | 36 ft | 6 kts | 161° |
| 2026-04-22 00:40 | 22.30784 | 113.92136 | 36 ft | 5 kts | 161° |
| 2026-04-22 00:40 | 22.30749 | 113.92149 | 36 ft | 5 kts | 161° |
| 2026-04-22 00:40 | 22.30709 | 113.92164 | 36 ft | 7 kts | 161° |
| 2026-04-22 00:40 | 22.30654 | 113.92184 | 36 ft | 9 kts | 161° |
| 2026-04-22 00:41 | 22.30591 | 113.92192 | 36 ft | 8 kts | 203° |
| 2026-04-22 00:41 | 22.30564 | 113.92148 | 35 ft | 7 kts | 252° |
| 2026-04-22 00:41 | 22.30546 | 113.92090 | 37 ft | 9 kts | 252° |
| 2026-04-22 00:41 | 22.30524 | 113.92023 | 37 ft | 10 kts | 250° |
| 2026-04-22 00:42 | 22.30499 | 113.91946 | 36 ft | 11 kts | 251° |
| 2026-04-22 00:42 | 22.30471 | 113.91859 | 35 ft | 14 kts | 250° |
| 2026-04-22 00:42 | 22.30435 | 113.91751 | 36 ft | 17 kts | 250° |
| 2026-04-22 00:42 | 22.30395 | 113.91624 | 36 ft | 19 kts | 251° |
| 2026-04-22 00:43 | 22.30350 | 113.91484 | 36 ft | 20 kts | 250° |
| 2026-04-22 00:43 | 22.30302 | 113.91338 | 36 ft | 21 kts | 251° |
| 2026-04-22 00:43 | 22.30255 | 113.91193 | 35 ft | 20 kts | 251° |
| 2026-04-22 00:43 | 22.30210 | 113.91052 | 35 ft | 20 kts | 251° |
| 2026-04-22 00:44 | 22.30166 | 113.90915 | 36 ft | 19 kts | 251° |
| 2026-04-22 00:44 | 22.30124 | 113.90783 | 36 ft | 18 kts | 251° |
| 2026-04-22 00:44 | 22.30082 | 113.90654 | 35 ft | 18 kts | 250° |
| 2026-04-22 00:44 | 22.30038 | 113.90520 | 34 ft | 20 kts | 251° |
| 2026-04-22 00:45 | 22.29993 | 113.90378 | 35 ft | 20 kts | 251° |
| 2026-04-22 00:45 | 22.29947 | 113.90238 | 35 ft | 20 kts | 251° |
| 2026-04-22 00:45 | 22.29903 | 113.90101 | 35 ft | 19 kts | 251° |
| 2026-04-22 00:45 | 22.29860 | 113.89970 | 36 ft | 18 kts | 250° |
| 2026-04-22 00:46 | 22.29819 | 113.89843 | 36 ft | 18 kts | 250° |
| 2026-04-22 00:46 | 22.29782 | 113.89770 | 36 ft | 7 kts | 213° |
| 2026-04-22 00:46 | 22.29737 | 113.89769 | 36 ft | 7 kts | 159° |
| 2026-04-22 00:46 | 22.29694 | 113.89786 | 36 ft | 7 kts | 159° |
| 2026-04-22 00:47 | 22.29651 | 113.89803 | 36 ft | 6 kts | 153° |
| 2026-04-22 00:47 | 22.29635 | 113.89837 | 36 ft | 5 kts | 91° |
| 2026-04-22 00:47 | 22.29645 | 113.89874 | 34 ft | 6 kts | 71° |
| 2026-04-22 00:47 | 22.29706 | 113.90062 | 35 ft | 61 kts | 71° |
| 2026-04-22 00:48 | 22.29927 | 113.90747 | 37 ft | 130 kts | 70° |
| 2026-04-22 00:48 | 22.30299 | 113.91863 | 67 ft | 182 kts | 73° |
| 2026-04-22 00:48 | 22.30733 | 113.93187 | 865 ft | 180 kts | 73° |
| 2026-04-22 00:48 | 22.31214 | 113.94380 | 1920 ft | 173 kts | 73° |
| 2026-04-22 00:49 | 22.31628 | 113.95670 | 2412 ft | 198 kts | 75° |
| 2026-04-22 00:49 | 22.32082 | 113.97197 | 2730 ft | 225 kts | 75° |
| 2026-04-22 00:49 | 22.32575 | 113.98820 | 3347 ft | 229 kts | 74° |
| 2026-04-22 00:49 | 22.33084 | 114.00476 | 3941 ft | 236 kts | 73° |
| 2026-04-22 00:50 | 22.33617 | 114.02181 | 4551 ft | 243 kts | 76° |
| 2026-04-22 00:50 | 22.33840 | 114.03992 | 5245 ft | 245 kts | 97° |
| 2026-04-22 00:50 | 22.33441 | 114.05773 | 5926 ft | 245 kts | 120° |
| 2026-04-22 00:50 | 22.32451 | 114.07252 | 6574 ft | 245 kts | 141° |
| 2026-04-22 00:51 | 22.30999 | 114.08280 | 7008 ft | 254 kts | 162° |
| 2026-04-22 00:51 | 22.29281 | 114.08731 | 7620 ft | 255 kts | 179° |
| 2026-04-22 00:51 | 22.27513 | 114.08763 | 8192 ft | 265 kts | 185° |
| 2026-04-22 00:51 | 22.25583 | 114.08719 | 8666 ft | 280 kts | 185° |
| 2026-04-22 00:52 | 22.23640 | 114.08685 | 9355 ft | 286 kts | 185° |
| 2026-04-22 00:52 | 22.21608 | 114.08659 | 10112 ft | 290 kts | 185° |
| 2026-04-22 00:52 | 22.19556 | 114.08635 | 10415 ft | 311 kts | 184° |
| 2026-04-22 00:52 | 22.17328 | 114.08996 | 10558 ft | 342 kts | 162° |
| 2026-04-22 00:53 | 22.15264 | 114.10449 | 10713 ft | 372 kts | 136° |
| 2026-04-22 00:53 | 22.13815 | 114.12842 | 11001 ft | 391 kts | 119° |
| 2026-04-22 00:53 | 22.12633 | 114.15524 | 11369 ft | 402 kts | 117° |
| 2026-04-22 00:53 | 22.11439 | 114.18284 | 11796 ft | 409 kts | 117° |
| 2026-04-22 00:54 | 22.10176 | 114.21057 | 12277 ft | 414 kts | 118° |
| 2026-04-22 00:54 | 22.08869 | 114.23826 | 12852 ft | 416 kts | 119° |
| 2026-04-22 00:54 | 22.07303 | 114.26430 | 13468 ft | 412 kts | 135° |
| 2026-04-22 00:54 | 22.05127 | 114.28398 | 14068 ft | 408 kts | 148° |
| 2026-04-22 00:55 | 22.02803 | 114.30152 | 14589 ft | 409 kts | 148° |
| 2026-04-22 00:55 | 22.00444 | 114.31886 | 15069 ft | 410 kts | 153° |
| 2026-04-22 00:55 | 21.94999 | 114.32999 | 15954 ft | 403 kts | 191° |
| 2026-04-22 00:56 | 21.92313 | 114.32193 | 16379 ft | 401 kts | 207° |
| 2026-04-22 00:56 | 21.89956 | 114.30602 | 16793 ft | 401 kts | 220° |
| 2026-04-22 00:56 | 21.87760 | 114.28730 | 17183 ft | 404 kts | 221° |
| 2026-04-22 00:56 | 21.85571 | 114.26813 | 17556 ft | 408 kts | 221° |
| 2026-04-22 00:57 | 21.83356 | 114.24875 | 17942 ft | 411 kts | 221° |
| 2026-04-22 00:57 | 21.81116 | 114.22934 | 18294 ft | 415 kts | 221° |
| 2026-04-22 00:57 | 21.78882 | 114.21016 | 18641 ft | 417 kts | 220° |
| 2026-04-22 00:57 | 21.76609 | 114.19078 | 19019 ft | 418 kts | 220° |
| 2026-04-22 00:58 | 21.74324 | 114.17136 | 19387 ft | 419 kts | 220° |
| 2026-04-22 00:58 | 21.72031 | 114.15190 | 19733 ft | 421 kts | 220° |
| 2026-04-22 00:58 | 21.69723 | 114.13230 | 20093 ft | 423 kts | 220° |
| 2026-04-22 00:58 | 21.67409 | 114.11266 | 20431 ft | 425 kts | 220° |
| 2026-04-22 00:59 | 21.65039 | 114.09365 | 20781 ft | 428 kts | 213° |
| 2026-04-22 00:59 | 21.62288 | 114.08123 | 21197 ft | 432 kts | 198° |
| 2026-04-22 00:59 | 21.59358 | 114.07370 | 21563 ft | 434 kts | 195° |
| 2026-04-22 00:59 | 21.56384 | 114.06660 | 21613 ft | 441 kts | 195° |
| 2026-04-22 01:00 | 21.53372 | 114.05931 | 21624 ft | 446 kts | 195° |
| 2026-04-22 01:00 | 21.50331 | 114.05167 | 21642 ft | 451 kts | 196° |
| 2026-04-22 01:00 | 21.47269 | 114.04378 | 21638 ft | 456 kts | 196° |
| 2026-04-22 01:00 | 21.44189 | 114.03504 | 21618 ft | 458 kts | 202° |
| 2026-04-22 01:01 | 21.41384 | 114.01925 | 21645 ft | 456 kts | 216° |
| 2026-04-22 01:01 | 21.38758 | 113.99996 | 21634 ft | 459 kts | 216° |
| 2026-04-22 01:01 | 21.36112 | 113.98059 | 21626 ft | 462 kts | 216° |
| 2026-04-22 01:01 | 21.33449 | 113.96134 | 21616 ft | 461 kts | 216° |
| 2026-04-22 01:02 | 21.30777 | 113.94228 | 21617 ft | 461 kts | 216° |
| 2026-04-22 01:02 | 21.28097 | 113.92331 | 21624 ft | 461 kts | 215° |
| 2026-04-22 01:02 | 21.25415 | 113.90441 | 21624 ft | 461 kts | 215° |
| 2026-04-22 01:02 | 21.22735 | 113.88554 | 21627 ft | 461 kts | 215° |
| 2026-04-22 01:03 | 21.20053 | 113.86666 | 21619 ft | 461 kts | 215° |
| 2026-04-22 01:03 | 21.17371 | 113.84776 | 21619 ft | 461 kts | 215° |
| 2026-04-22 01:03 | 21.14687 | 113.82886 | 21631 ft | 462 kts | 215° |
| 2026-04-22 01:03 | 21.12033 | 113.80960 | 21619 ft | 461 kts | 220° |
| 2026-04-22 01:04 | 21.09729 | 113.78599 | 21632 ft | 457 kts | 231° |
| 2026-04-22 01:04 | 21.07893 | 113.75831 | 21630 ft | 455 kts | 241° |
| 2026-04-22 01:04 | 21.06565 | 113.72770 | 21626 ft | 454 kts | 251° |
| 2026-04-22 01:04 | 21.05549 | 113.69565 | 21631 ft | 454 kts | 252° |
| 2026-04-22 01:05 | 21.04552 | 113.66363 | 21623 ft | 454 kts | 252° |
| 2026-04-22 01:05 | 21.03550 | 113.63156 | 21626 ft | 454 kts | 252° |
| 2026-04-22 01:05 | 21.02537 | 113.59951 | 21626 ft | 454 kts | 252° |
| 2026-04-22 01:05 | 21.01515 | 113.56752 | 21626 ft | 454 kts | 252° |
| 2026-04-22 01:06 | 21.00486 | 113.53558 | 21625 ft | 455 kts | 252° |
| 2026-04-22 01:06 | 20.99448 | 113.50357 | 21623 ft | 455 kts | 251° |
| 2026-04-22 01:06 | 20.98409 | 113.47161 | 21625 ft | 455 kts | 251° |
| 2026-04-22 01:06 | 20.97370 | 113.43969 | 21621 ft | 454 kts | 251° |
| 2026-04-22 01:07 | 20.96330 | 113.40778 | 21622 ft | 454 kts | 251° |
| 2026-04-22 01:07 | 20.95288 | 113.37583 | 21626 ft | 454 kts | 251° |
| 2026-04-22 01:07 | 20.94600 | 113.35473 | 21624 ft | 454 kts | 251° |
| 2026-04-22 01:07 | 20.93560 | 113.32285 | 21625 ft | 454 kts | 251° |
| 2026-04-22 01:08 | 20.92165 | 113.28014 | 21627 ft | 454 kts | 251° |
| 2026-04-22 01:08 | 20.91474 | 113.25897 | 21627 ft | 454 kts | 251° |
| 2026-04-22 01:08 | 20.90432 | 113.22709 | 21622 ft | 454 kts | 251° |
| 2026-04-22 01:08 | 20.89389 | 113.19522 | 21625 ft | 454 kts | 251° |
| 2026-04-22 01:09 | 20.88345 | 113.16330 | 21624 ft | 454 kts | 251° |
| 2026-04-22 01:09 | 20.87300 | 113.13139 | 21625 ft | 454 kts | 251° |
| 2026-04-22 01:09 | 20.86256 | 113.09955 | 21627 ft | 454 kts | 251° |
| 2026-04-22 01:09 | 20.85209 | 113.06764 | 21627 ft | 454 kts | 251° |
| 2026-04-22 01:10 | 20.84164 | 113.03579 | 21626 ft | 454 kts | 251° |
| 2026-04-22 01:10 | 20.83119 | 113.00399 | 21622 ft | 454 kts | 251° |
| 2026-04-22 01:10 | 20.82070 | 112.97208 | 21622 ft | 454 kts | 251° |
| 2026-04-22 01:10 | 20.81038 | 112.94070 | 21624 ft | 454 kts | 251° |
| 2026-04-22 01:11 | 20.79989 | 112.90883 | 21619 ft | 454 kts | 251° |
| 2026-04-22 01:11 | 20.78943 | 112.87705 | 21624 ft | 454 kts | 251° |
| 2026-04-22 01:11 | 20.77894 | 112.84525 | 21621 ft | 453 kts | 251° |
| 2026-04-22 01:11 | 20.76845 | 112.81343 | 21622 ft | 453 kts | 251° |
| 2026-04-22 01:12 | 20.75795 | 112.78163 | 21624 ft | 453 kts | 251° |
| 2026-04-22 01:12 | 20.74747 | 112.74989 | 21622 ft | 454 kts | 251° |
| 2026-04-22 01:12 | 20.73697 | 112.71812 | 21620 ft | 454 kts | 251° |
| 2026-04-22 01:12 | 20.72645 | 112.68631 | 21621 ft | 454 kts | 251° |
| 2026-04-22 01:13 | 20.71592 | 112.65450 | 21620 ft | 454 kts | 251° |
| 2026-04-22 01:13 | 20.70538 | 112.62268 | 21621 ft | 454 kts | 251° |
| 2026-04-22 01:13 | 20.69486 | 112.59093 | 21623 ft | 454 kts | 251° |
| 2026-04-22 01:13 | 20.68430 | 112.55909 | 21618 ft | 454 kts | 251° |
| 2026-04-22 01:14 | 20.67374 | 112.52728 | 21616 ft | 454 kts | 251° |
| 2026-04-22 01:14 | 20.66333 | 112.49593 | 21619 ft | 454 kts | 251° |
| 2026-04-22 01:14 | 20.65263 | 112.46372 | 21616 ft | 454 kts | 251° |
| 2026-04-22 01:14 | 20.64217 | 112.43228 | 21615 ft | 454 kts | 251° |
| 2026-04-22 01:15 | 20.63161 | 112.40055 | 21619 ft | 454 kts | 251° |
| 2026-04-22 01:15 | 20.62101 | 112.36871 | 21613 ft | 454 kts | 251° |
| 2026-04-22 01:15 | 20.61041 | 112.33691 | 21613 ft | 454 kts | 251° |
| 2026-04-22 01:15 | 20.59983 | 112.30517 | 21615 ft | 454 kts | 251° |
| 2026-04-22 01:16 | 20.58922 | 112.27337 | 21616 ft | 455 kts | 251° |
| 2026-04-22 01:16 | 20.57862 | 112.24160 | 21616 ft | 455 kts | 251° |
| 2026-04-22 01:16 | 20.56800 | 112.20984 | 21613 ft | 455 kts | 252° |
| 2026-04-22 01:16 | 20.56029 | 112.17730 | 21606 ft | 453 kts | 264° |
| 2026-04-22 01:17 | 20.56043 | 112.14379 | 21625 ft | 452 kts | 277° |
| 2026-04-22 01:17 | 20.56713 | 112.11115 | 21613 ft | 452 kts | 289° |
| 2026-04-22 01:17 | 20.58018 | 112.08061 | 21625 ft | 452 kts | 296° |
| 2026-04-22 01:17 | 20.59427 | 112.05057 | 21612 ft | 453 kts | 296° |
| 2026-04-22 01:18 | 20.60836 | 112.02049 | 21610 ft | 453 kts | 296° |
| 2026-04-22 01:18 | 20.62235 | 111.99030 | 21606 ft | 453 kts | 295° |
| 2026-04-22 01:18 | 20.63615 | 111.96017 | 21606 ft | 453 kts | 295° |
| 2026-04-22 01:18 | 20.64990 | 111.92989 | 21609 ft | 453 kts | 295° |
| 2026-04-22 01:19 | 20.66357 | 111.89962 | 21611 ft | 452 kts | 295° |
| 2026-04-22 01:19 | 20.67721 | 111.86933 | 21608 ft | 452 kts | 295° |
| 2026-04-22 01:19 | 20.69064 | 111.83948 | 21609 ft | 452 kts | 295° |
| 2026-04-22 01:19 | 20.70441 | 111.80888 | 21610 ft | 451 kts | 295° |
| 2026-04-22 01:20 | 20.71802 | 111.77861 | 21611 ft | 451 kts | 295° |
| 2026-04-22 01:20 | 20.73141 | 111.74883 | 21608 ft | 451 kts | 295° |
| 2026-04-22 01:20 | 20.74513 | 111.71830 | 21607 ft | 451 kts | 295° |
| 2026-04-22 01:20 | 20.75855 | 111.68843 | 21608 ft | 451 kts | 295° |
| 2026-04-22 01:21 | 20.77208 | 111.65828 | 21608 ft | 451 kts | 295° |
| 2026-04-22 01:21 | 20.78563 | 111.62809 | 21604 ft | 451 kts | 295° |
| 2026-04-22 01:21 | 20.79919 | 111.59785 | 21605 ft | 451 kts | 295° |
| 2026-04-22 01:21 | 20.81272 | 111.56767 | 21601 ft | 451 kts | 295° |
| 2026-04-22 01:22 | 20.82558 | 111.53712 | 21591 ft | 451 kts | 289° |
| 2026-04-22 01:22 | 20.83195 | 111.50437 | 21616 ft | 451 kts | 275° |
| 2026-04-22 01:22 | 20.83145 | 111.47085 | 21605 ft | 452 kts | 263° |
| 2026-04-22 01:22 | 20.82397 | 111.43820 | 21611 ft | 454 kts | 252° |
| 2026-04-22 01:23 | 20.81309 | 111.40656 | 21607 ft | 454 kts | 251° |
| 2026-04-22 01:23 | 20.80197 | 111.37490 | 21596 ft | 455 kts | 251° |
| 2026-04-22 01:23 | 20.79090 | 111.34320 | 21597 ft | 455 kts | 251° |
| 2026-04-22 01:23 | 20.77996 | 111.31144 | 21597 ft | 455 kts | 251° |
| 2026-04-22 01:24 | 20.76929 | 111.28002 | 21603 ft | 455 kts | 251° |
| 2026-04-22 01:24 | 20.75857 | 111.24822 | 21597 ft | 456 kts | 251° |
| 2026-04-22 01:24 | 20.74787 | 111.21636 | 21599 ft | 456 kts | 251° |
| 2026-04-22 01:24 | 20.73720 | 111.18453 | 21600 ft | 456 kts | 251° |
| 2026-04-22 01:25 | 20.72648 | 111.15262 | 21595 ft | 456 kts | 251° |
| 2026-04-22 01:25 | 20.71576 | 111.12072 | 21591 ft | 456 kts | 251° |
| 2026-04-22 01:25 | 20.70504 | 111.08888 | 21592 ft | 456 kts | 251° |
| 2026-04-22 01:25 | 20.69429 | 111.05698 | 21589 ft | 456 kts | 251° |
| 2026-04-22 01:26 | 20.68355 | 111.02510 | 21591 ft | 456 kts | 251° |
| 2026-04-22 01:26 | 20.67280 | 110.99325 | 21590 ft | 456 kts | 251° |
| 2026-04-22 01:26 | 20.66200 | 110.96132 | 21589 ft | 456 kts | 251° |
| 2026-04-22 01:26 | 20.64768 | 110.93105 | 21580 ft | 460 kts | 236° |
| 2026-04-22 01:27 | 20.62637 | 110.90548 | 21590 ft | 463 kts | 224° |
| 2026-04-22 01:27 | 20.60005 | 110.88562 | 21579 ft | 468 kts | 209° |
| 2026-04-22 01:27 | 20.57011 | 110.87178 | 21584 ft | 469 kts | 204° |
| 2026-04-22 01:27 | 20.54017 | 110.85872 | 21572 ft | 470 kts | 205° |
| 2026-04-22 01:28 | 20.51011 | 110.84516 | 21568 ft | 470 kts | 204° |
| 2026-04-22 01:28 | 20.47861 | 110.83649 | 21553 ft | 462 kts | 188° |
| 2026-04-22 01:28 | 20.44731 | 110.83427 | 21566 ft | 442 kts | 185° |
| 2026-04-22 01:28 | 20.41723 | 110.83262 | 21555 ft | 423 kts | 185° |
| 2026-04-22 01:29 | 20.38843 | 110.83093 | 21560 ft | 406 kts | 186° |
| 2026-04-22 01:29 | 20.36075 | 110.82910 | 21446 ft | 393 kts | 186° |
| 2026-04-22 01:29 | 20.33367 | 110.82712 | 21157 ft | 386 kts | 186° |
| 2026-04-22 01:29 | 20.30701 | 110.82506 | 20751 ft | 383 kts | 186° |
| 2026-04-22 01:30 | 20.28045 | 110.82298 | 20360 ft | 380 kts | 186° |
| 2026-04-22 01:30 | 20.25414 | 110.82091 | 19964 ft | 378 kts | 186° |
| 2026-04-22 01:30 | 20.22802 | 110.81887 | 19559 ft | 376 kts | 186° |
| 2026-04-22 01:30 | 20.21076 | 110.81752 | 19269 ft | 375 kts | 186° |
| 2026-04-22 01:31 | 20.18101 | 110.81521 | 18808 ft | 373 kts | 186° |
| 2026-04-22 01:31 | 20.15479 | 110.81318 | 18355 ft | 373 kts | 186° |
| 2026-04-22 01:31 | 20.12894 | 110.81117 | 17897 ft | 372 kts | 186° |
| 2026-04-22 01:31 | 20.10352 | 110.80920 | 17477 ft | 370 kts | 186° |
| 2026-04-22 01:32 | 20.07791 | 110.80722 | 17050 ft | 367 kts | 186° |
| 2026-04-22 01:32 | 20.05255 | 110.80525 | 16634 ft | 364 kts | 186° |
| 2026-04-22 01:32 | 20.02744 | 110.80324 | 16214 ft | 361 kts | 187° |
| 2026-04-22 01:32 | 20.00244 | 110.80112 | 15805 ft | 359 kts | 187° |
| 2026-04-22 01:33 | 19.97757 | 110.79899 | 15404 ft | 357 kts | 187° |
| 2026-04-22 01:33 | 19.95286 | 110.79688 | 15012 ft | 355 kts | 187° |
| 2026-04-22 01:33 | 19.92830 | 110.79481 | 14627 ft | 353 kts | 187° |
| 2026-04-22 01:33 | 19.90399 | 110.79234 | 14233 ft | 349 kts | 193° |
| 2026-04-22 01:34 | 19.88173 | 110.78303 | 13856 ft | 342 kts | 216° |
| 2026-04-22 01:34 | 19.86469 | 110.76600 | 13473 ft | 335 kts | 237° |
| 2026-04-22 01:34 | 19.85422 | 110.74435 | 13225 ft | 326 kts | 252° |
| 2026-04-22 01:34 | 19.85046 | 110.72102 | 12978 ft | 319 kts | 267° |
| 2026-04-22 01:35 | 19.85005 | 110.69763 | 12713 ft | 314 kts | 270° |
| 2026-04-22 01:35 | 19.85018 | 110.67458 | 12400 ft | 311 kts | 270° |
| 2026-04-22 01:35 | 19.85032 | 110.65165 | 12027 ft | 311 kts | 269° |
| 2026-04-22 01:35 | 19.85031 | 110.62867 | 11656 ft | 310 kts | 269° |
| 2026-04-22 01:36 | 19.85018 | 110.60579 | 11285 ft | 310 kts | 269° |
| 2026-04-22 01:36 | 19.84999 | 110.58323 | 10961 ft | 308 kts | 269° |
| 2026-04-22 01:36 | 19.84979 | 110.56052 | 10617 ft | 306 kts | 269° |
| 2026-04-22 01:36 | 19.84970 | 110.53803 | 10351 ft | 302 kts | 269° |
| 2026-04-22 01:37 | 19.84965 | 110.51597 | 10187 ft | 295 kts | 269° |
| 2026-04-22 01:37 | 19.84963 | 110.49446 | 10047 ft | 288 kts | 269° |
| 2026-04-22 01:37 | 19.84960 | 110.47349 | 9941 ft | 279 kts | 269° |
| 2026-04-22 01:37 | 19.84957 | 110.45280 | 9540 ft | 282 kts | 269° |
| 2026-04-22 01:38 | 19.84953 | 110.43195 | 9203 ft | 283 kts | 268° |
| 2026-04-22 01:38 | 19.84947 | 110.41110 | 8887 ft | 282 kts | 268° |
| 2026-04-22 01:38 | 19.84940 | 110.39035 | 8585 ft | 281 kts | 269° |
| 2026-04-22 01:38 | 19.84934 | 110.36961 | 8274 ft | 280 kts | 268° |
| 2026-04-22 01:39 | 19.84927 | 110.34899 | 7988 ft | 279 kts | 269° |
| 2026-04-22 01:39 | 19.84922 | 110.32841 | 7676 ft | 278 kts | 268° |
| 2026-04-22 01:39 | 19.84916 | 110.30791 | 7385 ft | 277 kts | 268° |
| 2026-04-22 01:39 | 19.84910 | 110.28749 | 7102 ft | 277 kts | 268° |
| 2026-04-22 01:40 | 19.84903 | 110.26728 | 6799 ft | 276 kts | 268° |
| 2026-04-22 01:40 | 19.84895 | 110.24683 | 6456 ft | 278 kts | 268° |
| 2026-04-22 01:40 | 19.84887 | 110.22634 | 6146 ft | 277 kts | 268° |
| 2026-04-22 01:40 | 19.84880 | 110.20598 | 5839 ft | 275 kts | 268° |
| 2026-04-22 01:41 | 19.84871 | 110.18573 | 5556 ft | 274 kts | 270° |
| 2026-04-22 01:41 | 19.85263 | 110.16601 | 5244 ft | 277 kts | 294° |
| 2026-04-22 01:41 | 19.86434 | 110.14985 | 4947 ft | 280 kts | 319° |
| 2026-04-22 01:41 | 19.88153 | 110.14005 | 4602 ft | 287 kts | 342° |
| 2026-04-22 01:42 | 19.90128 | 110.13821 | 4306 ft | 285 kts | 5° |
| 2026-04-22 01:42 | 19.91930 | 110.14574 | 4186 ft | 274 kts | 36° |
| 2026-04-22 01:42 | 19.93124 | 110.16064 | 4029 ft | 262 kts | 69° |
| 2026-04-22 01:42 | 19.93455 | 110.17880 | 3968 ft | 242 kts | 90° |
| 2026-04-22 01:43 | 19.93464 | 110.19603 | 3835 ft | 226 kts | 91° |
| 2026-04-22 01:43 | 19.93443 | 110.21224 | 3768 ft | 214 kts | 92° |
| 2026-04-22 01:43 | 19.93433 | 110.22757 | 3553 ft | 207 kts | 92° |
| 2026-04-22 01:43 | 19.93430 | 110.24273 | 3395 ft | 198 kts | 92° |
| 2026-04-22 01:44 | 19.93417 | 110.25718 | 3326 ft | 201 kts | 91° |
| 2026-04-22 01:44 | 19.93445 | 110.27260 | 3033 ft | 216 kts | 91° |
| 2026-04-22 01:44 | 19.93409 | 110.28878 | 2764 ft | 216 kts | 91° |
| 2026-04-22 01:44 | 19.93465 | 110.30461 | 2511 ft | 212 kts | 91° |
| 2026-04-22 01:45 | 19.93527 | 110.32015 | 2219 ft | 207 kts | 93° |
| 2026-04-22 01:45 | 19.93515 | 110.33468 | 1975 ft | 192 kts | 97° |
| 2026-04-22 01:45 | 19.93460 | 110.34838 | 1767 ft | 180 kts | 96° |
| 2026-04-22 01:45 | 19.93455 | 110.36117 | 1513 ft | 164 kts | 96° |
| 2026-04-22 01:46 | 19.93460 | 110.37287 | 1317 ft | 156 kts | 94° |
| 2026-04-22 01:46 | 19.93459 | 110.38406 | 1092 ft | 147 kts | 96° |
| 2026-04-22 01:46 | 19.93442 | 110.39195 | 966 ft | 149 kts | 99° |
| 2026-04-22 01:47 | 19.93449 | 110.40245 | 846 ft | 159 kts | 93° |
| 2026-04-22 01:47 | 19.93473 | 110.41415 | 648 ft | 152 kts | 95° |
| 2026-04-22 01:47 | 19.93479 | 110.42549 | 427 ft | 153 kts | 94° |
| 2026-04-22 01:47 | 19.93476 | 110.43665 | 212 ft | 150 kts | 94° |
| 2026-04-22 01:48 | 19.93473 | 110.44759 | 79 ft | 136 kts | 90° |
| 2026-04-22 01:48 | 19.93481 | 110.45538 | 82 ft | 75 kts | 91° |
| 2026-04-22 01:48 | 19.93481 | 110.45942 | 80 ft | 26 kts | 82° |
| 2026-04-22 01:48 | 19.93528 | 110.46089 | 82 ft | 13 kts | 64° |
| 2026-04-22 01:49 | 19.93565 | 110.46172 | 72 ft | 12 kts | 64° |
| 2026-04-22 01:49 | 19.93602 | 110.46252 | 74 ft | 12 kts | 64° |
| 2026-04-22 01:49 | 19.93638 | 110.46330 | 73 ft | 12 kts | 64° |
| 2026-04-22 01:49 | 19.93661 | 110.46410 | 74 ft | 11 kts | 88° |
| 2026-04-22 01:50 | 19.93662 | 110.46491 | 76 ft | 11 kts | 90° |
| 2026-04-22 01:50 | 19.93662 | 110.46500 | 76 ft | 11 kts | 90° |
| 2026-04-22 01:50 | 19.93661 | 110.46556 | 76 ft | 11 kts | 91° |
| 2026-04-22 01:50 | 19.93662 | 110.46635 | 76 ft | 10 kts | 88° |
| 2026-04-22 01:51 | 19.93663 | 110.46711 | 75 ft | 10 kts | 90° |
| 2026-04-22 01:51 | 19.93671 | 110.46778 | 68 ft | 8 kts | 57° |
| 2026-04-22 01:51 | 19.93719 | 110.46795 | 70 ft | 7 kts | 358° |
| 2026-04-22 01:51 | 19.93770 | 110.46794 | 70 ft | 7 kts | 0° |
| 2026-04-22 01:52 | 19.93821 | 110.46794 | 70 ft | 8 kts | 359° |
| 2026-04-22 01:52 | 19.93885 | 110.46793 | 69 ft | 11 kts | 0° |
| 2026-04-22 01:52 | 19.93972 | 110.46793 | 66 ft | 14 kts | 360° |
| 2026-04-22 01:52 | 19.94081 | 110.46793 | 70 ft | 17 kts | 360° |
| 2026-04-22 01:53 | 19.94210 | 110.46792 | 65 ft | 20 kts | 358° |
| 2026-04-22 01:53 | 19.94362 | 110.46791 | 61 ft | 23 kts | 0° |
| 2026-04-22 01:53 | 19.94524 | 110.46790 | 57 ft | 23 kts | 359° |
| 2026-04-22 01:53 | 19.94682 | 110.46790 | 60 ft | 22 kts | 360° |
| 2026-04-22 01:54 | 19.94836 | 110.46790 | 54 ft | 22 kts | 0° |
| 2026-04-22 01:54 | 19.94986 | 110.46790 | 58 ft | 21 kts | 0° |
| 2026-04-22 01:54 | 19.95101 | 110.46784 | 54 ft | 11 kts | 341° |
| 2026-04-22 01:54 | 19.95124 | 110.46742 | 55 ft | 7 kts | 270° |
| 2026-04-22 01:55 | 19.95124 | 110.46692 | 54 ft | 7 kts | 270° |
| 2026-04-22 01:55 | 19.95124 | 110.46643 | 56 ft | 7 kts | 270° |
| 2026-04-22 01:55 | 19.95124 | 110.46595 | 56 ft | 6 kts | 270° |
| 2026-04-22 01:55 | 19.95124 | 110.46547 | 57 ft | 7 kts | 270° |
| 2026-04-22 01:56 | 19.95123 | 110.46484 | 55 ft | 11 kts | 270° |
| 2026-04-22 01:56 | 19.95123 | 110.46385 | 57 ft | 16 kts | 269° |
| 2026-04-22 01:56 | 19.95122 | 110.46252 | 57 ft | 19 kts | 270° |
| 2026-04-22 01:56 | 19.95121 | 110.46112 | 56 ft | 19 kts | 270° |
| 2026-04-22 01:57 | 19.95120 | 110.45999 | 56 ft | 11 kts | 263° |
| 2026-04-22 01:57 | 19.95097 | 110.45968 | 50 ft | 4 kts | 194° |
| 2026-04-22 01:57 | 19.95072 | 110.45967 | 52 ft | 4 kts | 183° |
| 2026-04-22 01:57 | 19.95040 | 110.45960 | 52 ft | 6 kts | 206° |
| 2026-04-22 01:58 | 19.95003 | 110.45924 | 54 ft | 9 kts | 224° |
| 2026-04-22 01:58 | 19.94965 | 110.45871 | 55 ft | 8 kts | 253° |
| 2026-04-22 01:58 | 19.94965 | 110.45812 | 50 ft | 8 kts | 270° |
| 2026-04-22 01:58 | 19.94965 | 110.45754 | 52 ft | 8 kts | 270° |
| 2026-04-22 01:59 | 19.94965 | 110.45698 | 56 ft | 7 kts | 268° |
| 2026-04-22 01:59 | 19.94943 | 110.45672 | 52 ft | 4 kts | 194° |
| 2026-04-22 01:59 | 19.94913 | 110.45681 | 56 ft | 5 kts | 165° |
| 2026-04-22 01:59 | 19.94892 | 110.45682 | 55 ft | 5 kts | 179° |
| 2026-04-22 02:00 | 19.94866 | 110.45683 | 53 ft | 1 kts | 179° |
| 2026-04-22 02:00 | 19.94860 | 110.45683 | 55 ft | 1 kts | 179° |
| 2026-04-22 02:00 | 19.94858 | 110.45683 | 55 ft | 0 kts | 179° |
| 2026-04-22 02:00 | 19.94857 | 110.45683 | 55 ft | 0 kts | 179° |
| 2026-04-22 02:01 | 19.94856 | 110.45683 | 55 ft | 0 kts | 179° |